NCAR-RAP Real-Time Weather Data

Output produced by METARs form (24 April 2018  16:17 UTC)
found at http://weather.rap.ucar.edu/surface/
 
RJAA 241600Z 17008KT 9999 -RA FEW025 BKN050 18/17 Q1007 NOSIG RMK 1CU025 7SC050 A2974
RJAA 241530Z 17007KT 8000 -RA FEW025 BKN050 18/17 Q1008 NOSIG RMK 1CU025 7SC050 A2977
RJAA 241500Z 18005KT 8000 -RA FEW025 BKN050 18/17 Q1008 NOSIG RMK 1CU025 7SC050 A2979
RJAA 241430Z 17007KT 150V220 8000 -RA FEW020 BKN050 18/17 Q1009 NOSIG RMK 2CU020 7SC050 A2980
RJAA 241400Z 15006KT 9999 -RA FEW020 BKN050 17/17 Q1009 NOSIG RMK 1CU020 7SC050 A2980
RJAA 241330Z 15006KT 9999 -RA FEW020 BKN050 17/17 Q1009 NOSIG RMK 1CU020 7SC050 A2982
RJAA 241300Z 17004KT 9999 -SHRA FEW015 SCT040 BKN070 17/17 Q1010 NOSIG RMK 1CU015 3CU040 7AC070 A2983
RJAA 241230Z 23003KT 190V270 7000 -SHRA FEW010 BKN040 BKN080 17/17 Q1010 NOSIG RMK 1ST010 5CU040 7AC080 A2985
RJAA 241219Z 18004KT 150V210 7000 -SHRA FEW010 SCT020 BKN040 17/17 Q1011 RMK 1ST010 3CU020 5CU040 A2985
RJAA 241200Z 25005KT 140V290 7000 SHRA FEW010 SCT020 BKN040 17/17 Q1011 BECMG 18006KT
RJAA 241145Z 16002KT 6000 SHRA FEW015 BKN040 17/16 Q1011 RMK 1CU015 7CU040 A2986
RJAA 241130Z 16003KT 8000 -SHRA FEW025 SCT040 BKN050 17/16 Q1011 NOSIG RMK 1CU025 3CU040 7SC050 A2987
RJAA 241100Z 18005KT 9000 -SHRA FEW025 SCT045 BKN060 17/16 Q1011 NOSIG RMK 1CU025 3CU045 6SC060 A2987 MOD TURB OBS AT 1055Z 20NM SE NARITA 7000FT IN CMB B77W AAL60
RJAA 241030Z 17006KT 9999 -SHRA FEW025 SCT045 BKN060 18/16 Q1011 NOSIG RMK 1CU025 3CU045 6SC060 A2986 MOD TURB OBS AT 1009Z BINKS 8000FT A320 VNL106
RJAA 241000Z 17005KT 9999 -SHRA FEW025 SCT045 BKN060 18/16 Q1010 NOSIG RMK 1CU025 3CU045 6SC060 A2985
RJAA 240930Z 16005KT 9999 -SHRA FEW030 BKN060 BKN080 17/16 Q1010 NOSIG RMK 2CU030 5SC060 7AC080 A2984
RJAA 240900Z 18004KT 9999 -SHRA FEW030 BKN090 18/16 Q1010 NOSIG RMK 2CU030 7AC090 A2984
RJAA 240830Z 18004KT 9999 -SHRA FEW020 BKN090 18/16 Q1010 NOSIG RMK 1CU020 7AC090 A2984
RJAA 240800Z 18006KT 9999 -SHRA FEW020 BKN100 19/15 Q1010 NOSIG RMK 2CU020 7AC100 A2984
RJAA 240730Z 19007KT 9999 -SHRA FEW020 BKN100 19/15 Q1010 NOSIG RMK 2CU020 7AC100 A2985
RJAA 240700Z 20010KT 9999 -SHRA FEW015 SCT030 BKN110 20/14 Q1011 NOSIG RMK 1CU015 3CU030 7AC110 A2986
RJAA 240630Z 22012KT 9999 -SHRA FEW015 SCT030 BKN110 21/14 Q1011 NOSIG RMK 1CU015 4CU030 7AC110 A2987
RJAA 240600Z 21011KT 170V240 9999 -SHRA FEW015 SCT040 BKN120 21/13 Q1011 NOSIG RMK 1CU015 3CU040 7AC120 A2987
RJAA 240530Z 21010KT 170V240 9999 FEW015 BKN120 22/14 Q1011 NOSIG RMK 1CU015 7AC120 A2987
RJAA 240500Z 21009KT 160V240 9999 FEW015 BKN035 22/14 Q1012 NOSIG RMK 2CU015 7CU035 A2989
RJAA 240430Z 20010KT 170V230 9999 FEW015 BKN030 BKN070 22/14 Q1012 NOSIG RMK 1CU015 5CU030 7AC070 A2990
RJAA 240400Z 20008KT 160V230 9999 FEW015 SCT030 BKN070 22/15 Q1013 NOSIG RMK 1CU015 4CU030 7AC070 A2991
RJAA 240330Z 19009KT 160V240 9999 FEW015 SCT030 BKN160 21/15 Q1013 NOSIG RMK 1CU015 4CU030 7AC160 A2992
RJAA 240300Z 18008KT 140V210 9999 FEW015 SCT030 BKN040 21/16 Q1013 NOSIG RMK 1CU015 3CU030 7SC040 A2994
RJAA 240230Z 17009KT 130V210 9999 FEW015 BKN040 21/17 Q1014 NOSIG RMK 1CU015 7SC040 A2995
RJAA 240200Z 15011KT 9999 FEW015 BKN030 BKN/// 20/16 Q1014 NOSIG
RJAA 240130Z 16009KT 9999 FEW015 SCT040 BKN/// 21/15 Q1015 NOSIG
RJAA 240100Z 16009KT 130V190 9999 FEW015 SCT040 BKN160 21/16 Q1015 NOSIG RMK 1CU015 3SC040 6AC160 A3000
RJAA 240030Z 20011KT 160V230 9999 FEW015 BKN170 21/15 Q1016 NOSIG RMK 1CU015 5AC170 A3001
RJAA 240000Z 17007KT 130V210 9999 FEW008 BKN170 19/15 Q1016 NOSIG RMK 1ST008 5AC170 A3002
RJAA 232330Z 13007KT 8000 FEW008 BKN170 19/16 Q1017 NOSIG RMK 1ST008 6AC170 A3003
RJAA 232300Z 15005KT 100V190 8000 FEW008 BKN070 BKN170 17/15 Q1017 NOSIG RMK 2ST008 5AC070 6AC170 A3005
RJAA 232230Z 14004KT 110V170 6000 BR FEW006 BKN007 16/15 Q1017 NOSIG RMK 1ST006 7ST007 A3005 BR NE
RJAA 232200Z 12005KT 4500 BR FEW006 BKN007 16/14 Q1017 BECMG TL2300 5000 NSW FEW006 BKN012 RMK 1ST006 7ST007 A3005
RJAA 232130Z 11004KT 070V140 5000 BR FEW006 BKN008 15/14 Q1017 TEMPO 4000 BR
RJAA 232100Z 07003KT 040V120 5000 BR FEW007 BKN009 14/13 Q1017 BECMG FEW008 BKN012 RMK 1ST007 7ST009 A3005
RJAA 232030Z 08005KT 5000 BR FEW008 BKN009 14/13 Q1017 NOSIG RMK 1ST008 7ST009 A3006
RJAA 232000Z 09006KT 5000 BR BKN009 14/13 Q1018 NOSIG RMK 7ST009 A3006
RJAA 231930Z 06004KT 6000 -RA FEW009 BKN012 14/13 Q1018 BECMG 08005KT
RJAA 231900Z 05005KT 030V090 5000 BR FEW005 BKN012 BKN020 14/13 Q1018 BECMG 08005KT TEMPO 4000 BR RMK 1ST005 6SC012 7SC020 A3007
RJAA 231830Z 12004KT 5000 BR FEW005 BKN010 BKN020 14/13 Q1018 TEMPO 4000 BR
RJAA 231800Z 09003KT 5000 BR FEW005 SCT010 BKN025 14/13 Q1018 TEMPO 4000 BR
RJAA 231730Z 07004KT 5000 BR FEW005 BKN009 14/13 Q1018 TEMPO 4000 BR
RJAA 231700Z 07004KT 030V110 5000 BR FEW006 BKN008 14/13 Q1019 TEMPO 4000 BR RMK 1ST006 7ST008 A3009
RJAA 231630Z 09003KT 060V130 5000 BR FEW005 BKN007 14/13 Q1019 TEMPO 4000 BR
RJAA 231600Z 08004KT 6000 FEW005 BKN007 14/13 Q1019 NOSIG RMK 1ST005 7ST007 A3011
RJAA 231530Z 04006KT 6000 FEW005 BKN006 14/13 Q1019 TEMPO 4000 BR FEW004 BKN005
RJAA 231500Z 04006KT 6000 BKN005 14/13 Q1020 TEMPO 4000 BR RMK 7ST005 A3013
RJAA 231430Z 05004KT 020V080 6000 BKN005 14/13 Q1020 TEMPO 4000 BR
RJAA 231420Z 06004KT 030V090 6000 BKN005 14/13 Q1020 RMK 7ST005 A3013
RJAA 231400Z 06004KT 020V080 7000 BKN006 14/13 Q1020 TEMPO FEW004 BKN005
RJAA 231330Z 08004KT 030V130 8000 BKN006 14/13 Q1020 TEMPO FEW004 BKN005
RJAA 231300Z 06006KT 020V090 7000 BKN006 14/13 Q1021 TEMPO FEW004 BKN005 RMK 7ST006 A3015
RJAA 231230Z 05007KT 010V080 8000 BKN006 14/13 Q1021 TEMPO FEW004 BKN005
RJAA 231200Z 04007KT 360V070 8000 BKN006 14/13 Q1021 TEMPO FEW004 BKN005
RJAA 231130Z 04006KT 010V080 9000 FEW006 BKN007 14/13 Q1021 NOSIG RMK 2ST006 7ST007 A3017
RJAA 231100Z 04009KT 9999 BKN007 14/13 Q1021 NOSIG RMK 7ST007 A3016
RJAA 231030Z 04009KT 350V060 9000 BKN007 14/13 Q1021 NOSIG RMK 7ST007 A3016
RJAA 231000Z 04006KT 010V080 9000 FEW007 BKN008 14/13 Q1021 NOSIG RMK 2ST007 7ST008 A3015
RJAA 230930Z 05007KT 010V090 8000 BKN008 14/12 Q1020 NOSIG RMK 7ST008 A3014
RJAA 230900Z 04008KT 010V080 8000 BKN009 14/12 Q1020 NOSIG RMK 7SC009 A3014
RJAA 230830Z 05009KT 020V090 9000 BKN010 15/12 Q1020 TEMPO FEW004 BKN009
RJAA 230800Z 05009KT 010V080 9000 BKN010 14/12 Q1020 TEMPO FEW004 BKN009
RJAA 230730Z 04011KT 010V070 9000 FEW010 BKN012 15/12 Q1020 BECMG FEW004 BKN009
RJAA 230700Z 04010KT 350V060 9000 FEW010 BKN013 15/12 Q1020 NOSIG RMK 1ST010 7SC013 A3014
RJAA 230630Z 05011KT 020V080 9000 FEW010 BKN013 15/12 Q1020 NOSIG RMK 1ST010 7SC013 A3013
RJAA 230614Z 05011KT 030V090 9000 FEW010 BKN014 15/12 Q1020 RMK 1ST010 7SC014 A3013
RJAA 230600Z 06010KT 010V100 9000 FEW010 BKN015 BKN035 16/12 Q1020 BECMG 04012KT FEW005 BKN012
RJAA 230530Z 04011KT 9000 FEW010 BKN015 BKN035 15/12 Q1020 NOSIG RMK 1ST010 6SC015 7SC035 A3014
RJAA 230500Z 04010KT 9999 FEW010 BKN020 BKN035 16/12 Q1020 NOSIG RMK 1ST010 5SC020 7SC035 A3014
RJAA 230430Z 04012KT 9999 FEW010 SCT020 BKN035 17/12 Q1020 NOSIG RMK 1ST010 4SC020 7SC035 A3014
RJAA 230400Z 03012KT 360V070 9999 FEW010 BKN020 BKN035 17/12 Q1021 NOSIG RMK 1ST010 5SC020 7SC035 A3015
RJAA 230330Z 03012KT 9999 FEW010 BKN017 BKN035 17/12 Q1021 NOSIG RMK 1ST010 5SC017 7SC035 A3016
RJAA 230300Z 03013KT 9999 FEW010 BKN016 BKN040 16/12 Q1021 NOSIG RMK 1ST010 5SC016 7SC040 A3017
RJAA 230230Z 05012KT 8000 FEW010 BKN016 16/12 Q1021 NOSIG RMK 1ST010 7SC016 A3017
RJAA 230200Z 04012KT 8000 FEW010 BKN015 BKN030 16/12 Q1022 NOSIG RMK 1ST010 5SC015 7SC030 A3018
RJAA 230130Z 04012KT 360V070 7000 FEW010 BKN014 16/12 Q1022 BECMG FEW008 BKN016
RJAA 230100Z 03011KT 7000 -RA FEW010 BKN013 15/12 Q1022 NOSIG RMK 2ST010 7SC013 A3019
RJAA 230030Z 03013KT 350V060 7000 FEW010 BKN011 15/12 Q1022 NOSIG RMK 2ST010 7SC011 A3019
RJAA 230000Z 03012KT 7000 FEW010 BKN011 15/12 Q1022 NOSIG RMK 1ST010 7SC011 A3019
RJAA 222330Z 04011KT 6000 FEW009 BKN010 15/12 Q1022 NOSIG RMK 1ST009 7SC010 A3018
RJAA 222300Z 04011KT 6000 FEW009 BKN010 15/13 Q1021 NOSIG RMK 1ST009 7SC010 A3018
RJAA 222230Z 03009KT 6000 FEW009 BKN010 15/13 Q1021 NOSIG RMK 1ST009 7SC010 A3017
RJAA 222200Z 04008KT 360V070 7000 FEW009 BKN010 15/13 Q1021 NOSIG RMK 1ST009 7SC010 A3015
RJAA 222130Z 04008KT 7000 FEW009 BKN010 15/13 Q1021 TEMPO FEW005 BKN008
RJAA 222107Z 03009KT 5000 BR SCT009 BKN010 15/13 Q1020 RMK 4ST009 7SC010 A3015
RJAA 222100Z 04009KT 5000 BR SCT008 BKN009 15/13 Q1020 TEMPO 4000 BR RMK 4ST008 7ST009 A3015
RJAA 222030Z 04009KT 360V060 4500 BR SCT008 BKN009 15/13 Q1020 NOSIG RMK 4ST008 7ST009 A3014
RJAA 222000Z 04009KT 4500 BR FEW007 SCT008 BKN009 15/13 Q1020 NOSIG RMK 1ST007 4ST008 7ST009 A3012
RJAA 221930Z 05007KT 5000 BR FEW007 BKN008 BKN009 15/13 Q1019 TEMPO 4000 BR
RJAA 221900Z 03007KT 5000 BR FEW007 BKN008 BKN009 15/14 Q1019 TEMPO 4000 BR RMK 1ST007 5ST008 7ST009 A3010
RJAA 221830Z 04007KT 6000 FEW007 SCT009 BKN010 15/14 Q1019 TEMPO 4000 BR FEW005 BKN008 RMK 1ST007 3ST009 7ST010 A3010
RJAA 221800Z 05008KT 6000 FEW007 SCT009 BKN010 15/14 Q1019 TEMPO 4000 BR FEW005 BKN008 RMK 1ST007 3ST009 7ST010 A3009
RJAA 221730Z 05008KT 7000 FEW007 SCT008 BKN010 15/13 Q1018 BECMG FEW005 BKN008
RJAA 221700Z 05009KT 8000 FEW007 SCT008 BKN009 16/14 Q1018 NOSIG RMK 1ST007 3ST008 7ST009 A3008
RJAA 221630Z 05008KT 8000 FEW006 SCT007 BKN009 16/14 Q1018 TEMPO 4000 BR RMK 1ST006 4ST007 6ST009 A3008
RJAA 221600Z 05007KT 8000 FEW005 BKN007 16/14 Q1018 TEMPO 4000 BR FEW003 BKN005 RMK 1ST005 7ST007 A3008
RJAA 221530Z 07007KT 6000 BR FEW003 BKN006 16/15 Q1018 BECMG 04006KT TEMPO 3000 BR FEW003 BKN005
RJAA 221500Z 07006KT 040V120 5000 BR FEW003 BKN006 16/15 Q1018 BECMG 04006KT TEMPO 3000 BR FEW003 BKN005
RJAA 221442Z 04006KT 010V080 4500 BR FEW003 SCT004 BKN005 16/15 Q1018 RMK 1ST003 3ST004 5ST005 A3008
RJAA 221430Z 04005KT 4000 BR FEW003 BKN004 16/15 Q1018 TEMPO 3000 BR
RJAA 221414Z 04006KT 4500 BR FEW003 BKN004 16/15 Q1018 RMK 1ST003 6ST004 A3007
RJAA 221400Z 06006KT 7000 BR FEW005 17/15 Q1018 BECMG 04006KT TEMPO 4000 BR RMK 1ST005 A3006 BR NE-E
RJAA 221330Z 07006KT 010V090 9999 FEW020 18/13 Q1017 BECMG 04006KT
RJAA 221300Z 05005KT 010V090 CAVOK 19/13 Q1017 NOSIG RMK A3005
RJAA 221230Z 00000KT CAVOK 19/12 Q1017 NOSIG RMK A3005
RJAA 221200Z VRB01KT CAVOK 17/11 Q1017 NOSIG RMK A3004
RJAA 221130Z 23002KT CAVOK 18/11 Q1017 NOSIG RMK A3004
RJAA 221100Z 24004KT CAVOK 19/11 Q1016 BECMG 27005KT
RJAA 221030Z 24004KT CAVOK 20/11 Q1016 BECMG 27005KT
RJAA 221000Z 24005KT CAVOK 21/10 Q1016 BECMG 27005KT
RJAA 220930Z 23007KT CAVOK 22/11 Q1015 BECMG 27005KT RMK A2999
RJAA 220900Z 25006KT CAVOK 23/13 Q1015 NOSIG RMK A2999
RJAA 220830Z 26006KT 230V290 CAVOK 24/12 Q1015 NOSIG RMK A2999
RJAA 220800Z 24008KT CAVOK 25/12 Q1015 BECMG 26006KT
RJAA 220730Z VRB03KT CAVOK 27/13 Q1015 BECMG 02005KT
RJAA 220700Z 04007KT 360V070 CAVOK 28/07 Q1015 NOSIG RMK A2997
RJAA 220630Z VRB04KT CAVOK 28/09 Q1015 BECMG 03005KT
RJAA 220600Z 09005KT 060V130 CAVOK 28/12 Q1015 NOSIG RMK A2997
RJAA 220530Z 11006KT 080V160 CAVOK 28/14 Q1015 NOSIG RMK A2998
RJAA 220500Z 12007KT 090V160 CAVOK 28/14 Q1015 NOSIG RMK A2999
RJAA 220430Z 10005KT 030V210 CAVOK 27/12 Q1015 NOSIG RMK A2999